sensor_id;sensor_type;location;lat;lon;timestamp;pressure;altitude;pressure_sealevel;temperature;humidity
43161;BME280;40968;52.342;5.528;2022-08-18T00:02:11;101350.75;;;19.31;74.64
43161;BME280;40968;52.342;5.528;2022-08-18T00:04:39;101326.25;;;19.22;74.83
43161;BME280;40968;52.342;5.528;2022-08-18T00:07:08;101332.06;;;19.28;74.54
43161;BME280;40968;52.342;5.528;2022-08-18T00:09:37;101274.81;;;18.95;74.24
43161;BME280;40968;52.342;5.528;2022-08-18T00:12:08;101327.81;;;19.25;74.59
43161;BME280;40968;52.342;5.528;2022-08-18T00:14:36;101345.19;;;19.32;74.50
43161;BME280;40968;52.342;5.528;2022-08-18T00:17:03;101259.66;;;18.74;75.02
43161;BME280;40968;52.342;5.528;2022-08-18T00:19:29;101350.72;;;19.22;75.37
43161;BME280;40968;52.342;5.528;2022-08-18T00:21:56;101345.63;;;19.19;75.16
43161;BME280;40968;52.342;5.528;2022-08-18T00:24:23;101197.47;;;18.18;74.81
43161;BME280;40968;52.342;5.528;2022-08-18T00:26:50;101306.53;;;18.94;74.84
43161;BME280;40968;52.342;5.528;2022-08-18T00:29:17;101311.81;;;18.96;75.04
43161;BME280;40968;52.342;5.528;2022-08-18T00:31:44;101359.25;;;19.28;74.88
43161;BME280;40968;52.342;5.528;2022-08-18T00:34:11;101280.78;;;18.80;74.46
43161;BME280;40968;52.342;5.528;2022-08-18T00:36:37;101166.53;;;18.11;74.05
43161;BME280;40968;52.342;5.528;2022-08-18T00:39:05;101273.56;;;18.89;74.25
43161;BME280;40968;52.342;5.528;2022-08-18T00:41:32;101353.94;;;19.44;74.22
43161;BME280;40968;52.342;5.528;2022-08-18T00:43:58;101315.22;;;19.24;74.24
43161;BME280;40968;52.342;5.528;2022-08-18T00:46:27;101320.28;;;19.19;74.31
43161;BME280;40968;52.342;5.528;2022-08-18T00:48:56;101115.25;;;18.00;74.41
43161;BME280;40968;52.342;5.528;2022-08-18T00:51:25;101276.50;;;18.96;74.13
43161;BME280;40968;52.342;5.528;2022-08-18T00:53:58;101308.09;;;19.23;74.22
43161;BME280;40968;52.342;5.528;2022-08-18T00:56:29;101318.31;;;19.29;74.78
43161;BME280;40968;52.342;5.528;2022-08-18T00:59:00;101096.16;;;17.92;74.52
43161;BME280;40968;52.342;5.528;2022-08-18T01:01:30;101297.34;;;19.13;75.11
43161;BME280;40968;52.342;5.528;2022-08-18T01:04:04;101350.13;;;19.37;75.24
43161;BME280;40968;52.342;5.528;2022-08-18T01:06:36;101349.75;;;19.32;75.20
43161;BME280;40968;52.342;5.528;2022-08-18T01:09:05;101308.81;;;19.07;75.75
43161;BME280;40968;52.342;5.528;2022-08-18T01:11:32;101328.44;;;19.19;75.53
43161;BME280;40968;52.342;5.528;2022-08-18T01:14:01;101309.16;;;19.04;75.54
43161;BME280;40968;52.342;5.528;2022-08-18T01:16:28;101354.97;;;19.25;76.06
43161;BME280;40968;52.342;5.528;2022-08-18T01:19:15;101354.13;;;19.25;75.88
43161;BME280;40968;52.342;5.528;2022-08-18T01:22:04;101253.19;;;18.67;75.14
43161;BME280;40968;52.342;5.528;2022-08-18T01:24:36;101310.22;;;19.11;75.40
43161;BME280;40968;52.342;5.528;2022-08-18T01:27:21;101367.16;;;19.39;75.15
43161;BME280;40968;52.342;5.528;2022-08-18T01:29:48;101357.81;;;19.42;74.85
43161;BME280;40968;52.342;5.528;2022-08-18T01:32:16;101371.94;;;19.45;75.06
43161;BME280;40968;52.342;5.528;2022-08-18T01:34:45;101364.63;;;19.46;75.08
43161;BME280;40968;52.342;5.528;2022-08-18T01:37:13;101310.22;;;19.11;74.18
43161;BME280;40968;52.342;5.528;2022-08-18T01:39:42;101368.41;;;19.53;74.40
43161;BME280;40968;52.342;5.528;2022-08-18T01:42:09;101332.63;;;19.31;74.55
43161;BME280;40968;52.342;5.528;2022-08-18T01:44:36;101291.16;;;19.03;74.65
43161;BME280;40968;52.342;5.528;2022-08-18T01:47:04;101386.97;;;19.58;74.62
43161;BME280;40968;52.342;5.528;2022-08-18T01:49:31;101311.13;;;19.20;73.80
43161;BME280;40968;52.342;5.528;2022-08-18T01:51:58;101365.22;;;19.58;74.09
43161;BME280;40968;52.342;5.528;2022-08-18T01:54:25;101385.16;;;19.66;74.56
43161;BME280;40968;52.342;5.528;2022-08-18T01:56:55;101306.41;;;19.22;74.25
43161;BME280;40968;52.342;5.528;2022-08-18T01:59:22;101374.44;;;19.65;74.29
43161;BME280;40968;52.342;5.528;2022-08-18T02:01:49;101367.16;;;19.65;74.31
43161;BME280;40968;52.342;5.528;2022-08-18T02:04:19;101369.00;;;19.65;74.63
43161;BME280;40968;52.342;5.528;2022-08-18T02:06:48;101361.50;;;19.59;74.88
43161;BME280;40968;52.342;5.528;2022-08-18T02:09:15;101294.78;;;19.12;74.58
43161;BME280;40968;52.342;5.528;2022-08-18T02:11:42;101289.13;;;19.05;74.66
43161;BME280;40968;52.342;5.528;2022-08-18T02:14:09;101265.94;;;18.93;74.91
43161;BME280;40968;52.342;5.528;2022-08-18T02:16:36;101303.16;;;19.18;74.31
43161;BME280;40968;52.342;5.528;2022-08-18T02:19:03;101313.84;;;19.20;73.99
43161;BME280;40968;52.342;5.528;2022-08-18T02:21:29;101296.97;;;19.08;74.27
43161;BME280;40968;52.342;5.528;2022-08-18T02:23:56;101326.06;;;19.16;74.27
43161;BME280;40968;52.342;5.528;2022-08-18T02:26:22;101302.34;;;19.00;74.36
43161;BME280;40968;52.342;5.528;2022-08-18T02:28:49;101279.06;;;18.79;74.80
43161;BME280;40968;52.342;5.528;2022-08-18T02:31:19;101334.66;;;19.11;74.94
43161;BME280;40968;52.342;5.528;2022-08-18T02:33:46;101313.41;;;18.88;74.39
43161;BME280;40968;52.342;5.528;2022-08-18T02:36:13;101362.97;;;19.27;74.12
43161;BME280;40968;52.342;5.528;2022-08-18T02:38:41;101365.69;;;19.27;74.35
43161;BME280;40968;52.342;5.528;2022-08-18T02:41:09;101358.53;;;19.26;74.18
43161;BME280;40968;52.342;5.528;2022-08-18T02:43:38;101341.50;;;19.15;73.64
43161;BME280;40968;52.342;5.528;2022-08-18T02:46:05;101355.44;;;19.20;73.98
43161;BME280;40968;52.342;5.528;2022-08-18T02:48:33;101355.44;;;19.20;73.88
43161;BME280;40968;52.342;5.528;2022-08-18T02:51:01;101363.25;;;19.15;74.35
43161;BME280;40968;52.342;5.528;2022-08-18T02:53:28;101359.97;;;19.12;74.32
43161;BME280;40968;52.342;5.528;2022-08-18T02:56:04;101375.41;;;19.11;74.35
43161;BME280;40968;52.342;5.528;2022-08-18T02:58:34;101370.31;;;19.08;74.57
43161;BME280;40968;52.342;5.528;2022-08-18T03:01:00;101299.22;;;18.59;73.87
43161;BME280;40968;52.342;5.528;2022-08-18T03:03:27;101384.22;;;19.05;73.85
43161;BME280;40968;52.342;5.528;2022-08-18T03:05:57;101332.25;;;18.72;74.00
43161;BME280;40968;52.342;5.528;2022-08-18T03:08:24;101350.19;;;18.83;74.22
43161;BME280;40968;52.342;5.528;2022-08-18T03:10:51;101380.09;;;19.01;74.18
43161;BME280;40968;52.342;5.528;2022-08-18T03:13:18;101382.81;;;19.01;74.15
43161;BME280;40968;52.342;5.528;2022-08-18T03:15:44;101344.53;;;18.76;74.08
43161;BME280;40968;52.342;5.528;2022-08-18T03:18:11;101357.72;;;18.71;74.47
43161;BME280;40968;52.342;5.528;2022-08-18T03:20:38;101348.03;;;18.68;74.35
43161;BME280;40968;52.342;5.528;2022-08-18T03:23:06;101310.09;;;18.40;74.37
43161;BME280;40968;52.342;5.528;2022-08-18T03:25:33;101358.34;;;18.65;74.85
43161;BME280;40968;52.342;5.528;2022-08-18T03:28:01;101241.50;;;17.84;74.66
43161;BME280;40968;52.342;5.528;2022-08-18T03:30:28;101400.91;;;18.82;75.16
43161;BME280;40968;52.342;5.528;2022-08-18T03:32:55;101407.06;;;18.84;74.91
43161;BME280;40968;52.342;5.528;2022-08-18T03:35:22;101376.72;;;18.71;75.12
43161;BME280;40968;52.342;5.528;2022-08-18T03:37:49;101372.63;;;18.67;75.00
43161;BME280;40968;52.342;5.528;2022-08-18T03:40:17;101354.16;;;18.52;75.14
43161;BME280;40968;52.342;5.528;2022-08-18T03:42:43;101357.00;;;18.51;75.71
43161;BME280;40968;52.342;5.528;2022-08-18T03:45:10;101405.56;;;18.72;75.88
43161;BME280;40968;52.342;5.528;2022-08-18T03:47:36;101367.34;;;18.47;76.10
43161;BME280;40968;52.342;5.528;2022-08-18T03:50:05;101403.16;;;18.69;76.20
43161;BME280;40968;52.342;5.528;2022-08-18T03:52:31;101396.50;;;18.63;76.24
43161;BME280;40968;52.342;5.528;2022-08-18T03:54:58;101359.41;;;18.36;76.47
43161;BME280;40968;52.342;5.528;2022-08-18T03:57:27;101378.72;;;18.51;76.60
43161;BME280;40968;52.342;5.528;2022-08-18T03:59:57;101410.91;;;18.64;76.57
43161;BME280;40968;52.342;5.528;2022-08-18T04:02:24;101410.31;;;18.70;76.73
43161;BME280;40968;52.342;5.528;2022-08-18T04:04:50;101358.47;;;18.45;76.48
43161;BME280;40968;52.342;5.528;2022-08-18T04:07:17;101323.25;;;18.17;76.00
43161;BME280;40968;52.342;5.528;2022-08-18T04:09:44;101370.72;;;18.49;76.42
43161;BME280;40968;52.342;5.528;2022-08-18T04:12:13;101380.38;;;18.62;76.65
43161;BME280;40968;52.342;5.528;2022-08-18T04:14:42;101349.19;;;18.48;76.09
43161;BME280;40968;52.342;5.528;2022-08-18T04:17:10;101396.81;;;18.78;76.68
43161;BME280;40968;52.342;5.528;2022-08-18T04:19:37;101363.31;;;18.51;76.72
43161;BME280;40968;52.342;5.528;2022-08-18T04:22:04;101355.75;;;18.45;76.65
43161;BME280;40968;52.342;5.528;2022-08-18T04:24:32;101397.41;;;18.72;76.87
43161;BME280;40968;52.342;5.528;2022-08-18T04:27:00;101293.63;;;18.06;76.82
43161;BME280;40968;52.342;5.528;2022-08-18T04:29:27;101400.53;;;18.77;76.53
43161;BME280;40968;52.342;5.528;2022-08-18T04:31:55;101331.44;;;18.35;76.81
43161;BME280;40968;52.342;5.528;2022-08-18T04:34:22;101409.94;;;18.83;76.69
43161;BME280;40968;52.342;5.528;2022-08-18T04:36:49;101298.69;;;18.19;75.61
43161;BME280;40968;52.342;5.528;2022-08-18T04:39:18;101320.25;;;18.38;76.07
43161;BME280;40968;52.342;5.528;2022-08-18T04:41:46;101346.94;;;18.61;75.55
43161;BME280;40968;52.342;5.528;2022-08-18T04:44:13;101396.47;;;18.91;75.47
43161;BME280;40968;52.342;5.528;2022-08-18T04:46:44;101401.44;;;18.96;75.81
43161;BME280;40968;52.342;5.528;2022-08-18T04:49:14;101379.13;;;18.74;75.79
43161;BME280;40968;52.342;5.528;2022-08-18T04:51:43;101134.53;;;17.33;75.78
43161;BME280;40968;52.342;5.528;2022-08-18T04:54:30;101397.31;;;18.92;76.35
43161;BME280;40968;52.342;5.528;2022-08-18T04:56:56;101370.44;;;18.70;76.17
43161;BME280;40968;52.342;5.528;2022-08-18T04:59:22;101401.91;;;18.91;76.27
43161;BME280;40968;52.342;5.528;2022-08-18T05:01:50;101403.59;;;18.92;75.89
43161;BME280;40968;52.342;5.528;2022-08-18T05:04:18;101328.31;;;18.48;75.95
43161;BME280;40968;52.342;5.528;2022-08-18T05:06:44;101405.44;;;18.92;75.31
43161;BME280;40968;52.342;5.528;2022-08-18T05:09:13;101409.28;;;18.99;75.24
43161;BME280;40968;52.342;5.528;2022-08-18T05:11:40;101410.97;;;19.00;75.54
43161;BME280;40968;52.342;5.528;2022-08-18T05:14:09;101390.19;;;18.91;75.35
43161;BME280;40968;52.342;5.528;2022-08-18T05:16:36;101412.69;;;19.01;75.28
43161;BME280;40968;52.342;5.528;2022-08-18T05:19:05;101402.91;;;18.90;75.25
43161;BME280;40968;52.342;5.528;2022-08-18T05:21:34;101414.38;;;19.02;75.38
43161;BME280;40968;52.342;5.528;2022-08-18T05:24:03;101378.50;;;18.80;75.38
43161;BME280;40968;52.342;5.528;2022-08-18T05:26:30;101417.81;;;19.04;75.72
43161;BME280;40968;52.342;5.528;2022-08-18T05:28:57;101415.94;;;19.04;75.77
43161;BME280;40968;52.342;5.528;2022-08-18T05:31:25;101424.94;;;19.05;75.65
43161;BME280;40968;52.342;5.528;2022-08-18T05:33:53;101416.81;;;19.05;75.73
43161;BME280;40968;52.342;5.528;2022-08-18T05:36:30;101419.53;;;19.05;75.58
43161;BME280;40968;52.342;5.528;2022-08-18T05:39:05;101421.38;;;19.04;75.71
43161;BME280;40968;52.342;5.528;2022-08-18T05:41:39;101421.38;;;19.04;75.66
43161;BME280;40968;52.342;5.528;2022-08-18T05:44:08;101381.91;;;18.82;74.82
43161;BME280;40968;52.342;5.528;2022-08-18T05:46:41;101415.16;;;19.12;74.55
43161;BME280;40968;52.342;5.528;2022-08-18T05:49:09;101317.56;;;18.56;74.47
43161;BME280;40968;52.342;5.528;2022-08-18T05:51:40;101416.09;;;19.21;74.65
43161;BME280;40968;52.342;5.528;2022-08-18T05:54:09;101307.16;;;18.52;74.85
43161;BME280;40968;52.342;5.528;2022-08-18T05:56:56;101335.38;;;18.77;75.09
43161;BME280;40968;52.342;5.528;2022-08-18T05:59:27;101409.09;;;19.18;75.05
43161;BME280;40968;52.342;5.528;2022-08-18T06:02:03;101409.09;;;19.18;74.84
43161;BME280;40968;52.342;5.528;2022-08-18T06:04:40;101409.66;;;19.22;75.38
43161;BME280;40968;52.342;5.528;2022-08-18T06:07:11;101416.47;;;19.26;75.35
43161;BME280;40968;52.342;5.528;2022-08-18T06:09:44;101415.84;;;19.32;75.68
43161;BME280;40968;52.342;5.528;2022-08-18T06:12:20;101396.28;;;19.29;75.79
43161;BME280;40968;52.342;5.528;2022-08-18T06:14:48;101290.53;;;18.73;75.62
43161;BME280;40968;52.342;5.528;2022-08-18T06:20:27;101368.47;;;19.35;75.52
43161;BME280;40968;52.342;5.528;2022-08-18T06:23:02;101398.69;;;19.58;75.52
43161;BME280;40968;52.342;5.528;2022-08-18T06:25:43;101372.47;;;19.49;75.16
43161;BME280;40968;52.342;5.528;2022-08-18T06:28:16;101296.03;;;18.99;74.95
43161;BME280;40968;52.342;5.528;2022-08-18T06:30:47;101388.81;;;19.57;74.91
43161;BME280;40968;52.342;5.528;2022-08-18T06:33:30;101417.34;;;19.79;74.98
43161;BME280;40968;52.342;5.528;2022-08-18T06:36:03;101282.47;;;18.99;74.97
43161;BME280;40968;52.342;5.528;2022-08-18T06:38:44;101414.00;;;19.85;74.73
43161;BME280;40968;52.342;5.528;2022-08-18T06:41:19;101294.00;;;19.19;74.74
43161;BME280;40968;52.342;5.528;2022-08-18T06:43:55;101390.16;;;19.79;74.09
43161;BME280;40968;52.342;5.528;2022-08-18T06:46:30;101386.03;;;19.75;73.01
43161;BME280;40968;52.342;5.528;2022-08-18T06:49:02;101392.81;;;19.71;73.05
43161;BME280;40968;52.342;5.528;2022-08-18T06:51:30;101243.44;;;18.82;73.32
43161;BME280;40968;52.342;5.528;2022-08-18T06:53:58;101369.69;;;19.67;73.36
43161;BME280;40968;52.342;5.528;2022-08-18T06:56:34;101418.84;;;20.00;73.35
43161;BME280;40968;52.342;5.528;2022-08-18T06:59:22;101355.72;;;19.62;72.65
43161;BME280;40968;52.342;5.528;2022-08-18T07:01:52;101237.78;;;18.94;72.94
43161;BME280;40968;52.342;5.528;2022-08-18T07:04:35;101432.72;;;20.15;72.64
43161;BME280;40968;52.342;5.528;2022-08-18T07:07:19;101386.47;;;19.88;72.20
43161;BME280;40968;52.342;5.528;2022-08-18T07:09:47;101432.03;;;20.21;72.27
43161;BME280;40968;52.342;5.528;2022-08-18T07:12:21;101438.19;;;20.23;72.29
43161;BME280;40968;52.342;5.528;2022-08-18T07:14:52;101398.47;;;20.04;71.62
43161;BME280;40968;52.342;5.528;2022-08-18T07:17:20;101433.94;;;20.29;71.99
43161;BME280;40968;52.342;5.528;2022-08-18T07:19:59;101384.19;;;20.02;72.02
43161;BME280;40968;52.342;5.528;2022-08-18T07:22:27;101334.38;;;19.75;71.39
43161;BME280;40968;52.342;5.528;2022-08-18T07:24:55;101372.56;;;19.92;71.29
43161;BME280;40968;52.342;5.528;2022-08-18T07:30:28;101395.94;;;20.11;70.94
43161;BME280;40968;52.342;5.528;2022-08-18T07:32:59;101423.75;;;20.31;71.39
43161;BME280;40968;52.342;5.528;2022-08-18T07:35:32;101450.03;;;20.48;71.06
43161;BME280;40968;52.342;5.528;2022-08-18T07:38:08;101470.50;;;20.61;71.22
43161;BME280;40968;52.342;5.528;2022-08-18T07:40:46;101425.50;;;20.40;71.59
43161;BME280;40968;52.342;5.528;2022-08-18T07:43:20;101444.94;;;20.62;71.95
43161;BME280;40968;52.342;5.528;2022-08-18T07:45:51;101422.31;;;20.61;71.32
43161;BME280;40968;52.342;5.528;2022-08-18T07:48:24;101422.84;;;20.65;70.50
43161;BME280;40968;52.342;5.528;2022-08-18T07:50:58;101415.34;;;20.59;70.81
43161;BME280;40968;52.342;5.528;2022-08-18T07:53:34;101443.19;;;21.03;70.88
43161;BME280;40968;52.342;5.528;2022-08-18T07:56:06;101349.50;;;20.63;70.25
43161;BME280;40968;52.342;5.528;2022-08-18T07:58:43;101411.03;;;21.15;69.71
43161;BME280;40968;52.342;5.528;2022-08-18T08:01:20;101465.38;;;21.66;68.73
43161;BME280;40968;52.342;5.528;2022-08-18T08:03:52;101465.38;;;21.83;68.47
43161;BME280;40968;52.342;5.528;2022-08-18T08:06:26;101426.88;;;21.69;67.96
43161;BME280;40968;52.342;5.528;2022-08-18T08:09:02;101461.06;;;21.97;67.95
43161;BME280;40968;52.342;5.528;2022-08-18T08:11:40;101409.63;;;21.69;67.73
43161;BME280;40968;52.342;5.528;2022-08-18T08:14:18;101389.38;;;21.47;66.75
43161;BME280;40968;52.342;5.528;2022-08-18T08:16:59;101358.75;;;21.20;67.26
43161;BME280;40968;52.342;5.528;2022-08-18T08:19:41;101365.38;;;21.17;67.93
43161;BME280;40968;52.342;5.528;2022-08-18T08:22:18;101476.44;;;21.90;67.89
43161;BME280;40968;52.342;5.528;2022-08-18T08:24:55;101454.97;;;21.86;67.15
43161;BME280;40968;52.342;5.528;2022-08-18T08:27:33;101401.47;;;21.61;65.95
43161;BME280;40968;52.342;5.528;2022-08-18T08:30:06;101468.19;;;22.14;66.58
43161;BME280;40968;52.342;5.528;2022-08-18T08:32:44;101397.88;;;21.77;65.78
43161;BME280;40968;52.342;5.528;2022-08-18T08:35:17;101422.53;;;22.00;65.16
43161;BME280;40968;52.342;5.528;2022-08-18T08:37:48;101398.63;;;22.02;64.04
43161;BME280;40968;52.342;5.528;2022-08-18T08:40:19;101465.69;;;22.52;63.95
43161;BME280;40968;52.342;5.528;2022-08-18T08:42:51;101469.38;;;22.68;63.65
43161;BME280;40968;52.342;5.528;2022-08-18T08:45:23;101405.97;;;22.49;63.72
43161;BME280;40968;52.342;5.528;2022-08-18T08:47:59;101439.88;;;22.87;62.59
43161;BME280;40968;52.342;5.528;2022-08-18T08:50:28;101460.91;;;23.09;62.01
43161;BME280;40968;52.342;5.528;2022-08-18T08:52:58;101429.19;;;23.00;62.88
43161;BME280;40968;52.342;5.528;2022-08-18T08:55:27;101461.78;;;23.33;63.23
43161;BME280;40968;52.342;5.528;2022-08-18T08:57:59;101418.66;;;22.97;62.46
43161;BME280;40968;52.342;5.528;2022-08-18T09:00:27;101334.72;;;22.28;62.54
43161;BME280;40968;52.342;5.528;2022-08-18T09:03:09;101425.66;;;22.68;63.03
43161;BME280;40968;52.342;5.528;2022-08-18T09:05:43;101396.78;;;22.42;63.60
43161;BME280;40968;52.342;5.528;2022-08-18T09:08:48;101439.72;;;22.57;63.17
43161;BME280;40968;52.342;5.528;2022-08-18T09:17:37;101341.31;;;22.02;64.31
43161;BME280;40968;52.342;5.528;2022-08-18T09:20:24;101447.53;;;22.68;64.14
43161;BME280;40968;52.342;5.528;2022-08-18T09:22:59;101445.81;;;22.67;64.11
43161;BME280;40968;52.342;5.528;2022-08-18T09:25:32;101480.47;;;22.98;64.83
43161;BME280;40968;52.342;5.528;2022-08-18T09:28:11;101485.00;;;23.06;64.34
43161;BME280;40968;52.342;5.528;2022-08-18T09:30:45;101406.88;;;22.65;64.13
43161;BME280;40968;52.342;5.528;2022-08-18T09:33:25;101425.28;;;22.71;64.00
43161;BME280;40968;52.342;5.528;2022-08-18T09:36:06;101418.13;;;22.70;64.04
43161;BME280;40968;52.342;5.528;2022-08-18T09:41:34;101463.66;;;22.86;63.47
43161;BME280;40968;52.342;5.528;2022-08-18T09:44:04;101459.53;;;22.82;63.37
43161;BME280;40968;52.342;5.528;2022-08-18T09:46:55;101388.91;;;22.47;63.73
43161;BME280;40968;52.342;5.528;2022-08-18T09:49:41;101483.41;;;23.20;63.69
43161;BME280;40968;52.342;5.528;2022-08-18T09:55:42;101452.06;;;23.07;62.20
43161;BME280;40968;52.342;5.528;2022-08-18T09:58:19;101489.06;;;23.18;62.77
43161;BME280;40968;52.342;5.528;2022-08-18T10:01:20;101415.00;;;22.81;62.38
43161;BME280;40968;52.342;5.528;2022-08-18T10:06:49;101447.25;;;23.09;62.75
43161;BME280;40968;52.342;5.528;2022-08-18T10:09:24;101454.38;;;23.42;62.26
43161;BME280;40968;52.342;5.528;2022-08-18T10:15:00;101402.84;;;23.07;60.95
43161;BME280;40968;52.342;5.528;2022-08-18T10:17:42;101463.81;;;23.54;60.81
43161;BME280;40968;52.342;5.528;2022-08-18T10:20:22;101438.34;;;23.54;60.77
43161;BME280;40968;52.342;5.528;2022-08-18T10:22:53;101469.13;;;23.94;59.71
43161;BME280;40968;52.342;5.528;2022-08-18T10:25:34;101470.91;;;24.16;58.80
43161;BME280;40968;52.342;5.528;2022-08-18T10:28:04;101439.94;;;24.31;59.09
43161;BME280;40968;52.342;5.528;2022-08-18T10:31:00;101466.94;;;24.64;56.70
43161;BME280;40968;52.342;5.528;2022-08-18T10:33:59;101457.38;;;24.60;56.57
43161;BME280;40968;52.342;5.528;2022-08-18T10:36:44;101423.03;;;24.42;56.22
43161;BME280;40968;52.342;5.528;2022-08-18T10:39:12;101420.28;;;24.27;57.10
43161;BME280;40968;52.342;5.528;2022-08-18T10:41:54;101484.78;;;24.45;57.37
43161;BME280;40968;52.342;5.528;2022-08-18T10:44:24;101430.91;;;24.00;56.79
43161;BME280;40968;52.342;5.528;2022-08-18T10:46:53;101478.75;;;24.20;56.29
43161;BME280;40968;52.342;5.528;2022-08-18T10:49:23;101450.59;;;23.96;56.26
43161;BME280;40968;52.342;5.528;2022-08-18T10:52:12;101475.91;;;23.98;57.04
43161;BME280;40968;52.342;5.528;2022-08-18T10:54:56;101477.38;;;23.85;57.88
43161;BME280;40968;52.342;5.528;2022-08-18T10:57:32;101458.09;;;23.64;58.43
43161;BME280;40968;52.342;5.528;2022-08-18T11:00:07;101454.34;;;23.65;58.54
43161;BME280;40968;52.342;5.528;2022-08-18T11:02:51;101474.72;;;23.77;57.51
43161;BME280;40968;52.342;5.528;2022-08-18T11:05:22;101478.88;;;23.73;57.62
43161;BME280;40968;52.342;5.528;2022-08-18T11:07:54;101479.59;;;23.67;58.11
43161;BME280;40968;52.342;5.528;2022-08-18T11:10:36;101462.97;;;23.54;57.94
43161;BME280;40968;52.342;5.528;2022-08-18T11:13:08;101433.59;;;23.32;58.95
43161;BME280;40968;52.342;5.528;2022-08-18T11:15:47;101486.13;;;23.66;58.96
43161;BME280;40968;52.342;5.528;2022-08-18T11:18:25;101478.38;;;23.70;59.03
43161;BME280;40968;52.342;5.528;2022-08-18T11:21:23;101420.94;;;23.31;59.16
43161;BME280;40968;52.342;5.528;2022-08-18T11:24:04;101475.59;;;23.78;58.93
43161;BME280;40968;52.342;5.528;2022-08-18T11:26:32;101463.28;;;23.74;59.13
43161;BME280;40968;52.342;5.528;2022-08-18T11:28:59;101469.63;;;23.89;58.69
43161;BME280;40968;52.342;5.528;2022-08-18T11:31:27;101422.81;;;23.69;58.76
43161;BME280;40968;52.342;5.528;2022-08-18T11:33:53;101444.16;;;23.89;58.10
43161;BME280;40968;52.342;5.528;2022-08-18T11:36:29;101469.78;;;24.11;57.43
43161;BME280;40968;52.342;5.528;2022-08-18T11:38:56;101470.72;;;24.18;58.02
43161;BME280;40968;52.342;5.528;2022-08-18T11:41:25;101471.78;;;24.32;57.55
43161;BME280;40968;52.342;5.528;2022-08-18T11:43:54;101320.34;;;23.57;57.43
43161;BME280;40968;52.342;5.528;2022-08-18T11:46:27;101403.78;;;24.21;57.12
43161;BME280;40968;52.342;5.528;2022-08-18T11:48:54;101465.50;;;24.68;56.81
43161;BME280;40968;52.342;5.528;2022-08-18T11:51:23;101461.78;;;24.76;55.99
43161;BME280;40968;52.342;5.528;2022-08-18T11:53:53;101458.56;;;24.87;56.39
43161;BME280;40968;52.342;5.528;2022-08-18T11:56:23;101452.94;;;24.95;56.09
43161;BME280;40968;52.342;5.528;2022-08-18T11:58:52;101437.41;;;24.81;55.71
43161;BME280;40968;52.342;5.528;2022-08-18T12:01:36;101442.25;;;25.00;55.23
43161;BME280;40968;52.342;5.528;2022-08-18T12:04:13;101401.41;;;24.84;55.02
43161;BME280;40968;52.342;5.528;2022-08-18T12:06:55;101280.81;;;24.26;55.46
43161;BME280;40968;52.342;5.528;2022-08-18T12:09:28;101402.81;;;25.02;54.92
43161;BME280;40968;52.342;5.528;2022-08-18T12:11:58;101440.34;;;25.23;55.16
43161;BME280;40968;52.342;5.528;2022-08-18T12:14:27;101418.69;;;25.06;55.33
43161;BME280;40968;52.342;5.528;2022-08-18T12:16:56;101415.69;;;25.01;55.08
43161;BME280;40968;52.342;5.528;2022-08-18T12:19:24;101449.19;;;25.18;55.06
43161;BME280;40968;52.342;5.528;2022-08-18T12:21:55;101417.78;;;24.99;54.25
43161;BME280;40968;52.342;5.528;2022-08-18T12:24:24;101424.56;;;25.03;54.84
43161;BME280;40968;52.342;5.528;2022-08-18T12:26:52;101381.22;;;24.70;55.35
43161;BME280;40968;52.342;5.528;2022-08-18T12:29:19;101367.63;;;24.62;55.66
43161;BME280;40968;52.342;5.528;2022-08-18T12:31:48;101428.59;;;24.86;55.87
43161;BME280;40968;52.342;5.528;2022-08-18T12:34:17;101432.78;;;24.81;55.69
43161;BME280;40968;52.342;5.528;2022-08-18T12:36:45;101343.88;;;24.32;54.93
43161;BME280;40968;52.342;5.528;2022-08-18T12:39:12;101413.25;;;24.70;55.17
43161;BME280;40968;52.342;5.528;2022-08-18T12:41:38;101436.81;;;24.86;55.55
43161;BME280;40968;52.342;5.528;2022-08-18T12:44:05;101442.94;;;24.88;55.79
43161;BME280;40968;52.342;5.528;2022-08-18T12:46:31;101370.44;;;24.54;55.35
43161;BME280;40968;52.342;5.528;2022-08-18T12:48:58;101365.44;;;24.57;55.57
43161;BME280;40968;52.342;5.528;2022-08-18T12:51:26;101356.56;;;24.70;54.77
43161;BME280;40968;52.342;5.528;2022-08-18T12:53:52;101436.50;;;25.17;54.22
43161;BME280;40968;52.342;5.528;2022-08-18T12:56:22;101383.16;;;24.98;54.55
43161;BME280;40968;52.342;5.528;2022-08-18T12:58:49;101431.72;;;25.47;53.96
43161;BME280;40968;52.342;5.528;2022-08-18T13:01:16;101399.25;;;25.51;52.35
43161;BME280;40968;52.342;5.528;2022-08-18T13:03:43;101375.97;;;25.40;52.39
43161;BME280;40968;52.342;5.528;2022-08-18T13:06:11;101429.84;;;25.76;52.71
43161;BME280;40968;52.342;5.528;2022-08-18T13:08:39;101432.50;;;25.98;52.45
43161;BME280;40968;52.342;5.528;2022-08-18T13:11:06;101373.66;;;25.72;52.52
43161;BME280;40968;52.342;5.528;2022-08-18T13:13:35;101361.75;;;25.65;52.40
43161;BME280;40968;52.342;5.528;2022-08-18T13:16:02;101428.81;;;26.12;52.46
43161;BME280;40968;52.342;5.528;2022-08-18T13:18:29;101434.97;;;26.21;52.66
43161;BME280;40968;52.342;5.528;2022-08-18T13:20:56;101368.25;;;25.92;52.61
43161;BME280;40968;52.342;5.528;2022-08-18T13:23:23;101427.22;;;26.38;51.81
43161;BME280;40968;52.342;5.528;2022-08-18T13:25:52;101395.25;;;26.24;51.88
43161;BME280;40968;52.342;5.528;2022-08-18T13:28:19;101343.16;;;25.95;50.83
43161;BME280;40968;52.342;5.528;2022-08-18T13:30:45;101389.53;;;26.19;51.29
43161;BME280;40968;52.342;5.528;2022-08-18T13:33:13;101421.34;;;26.41;50.41
43161;BME280;40968;52.342;5.528;2022-08-18T13:35:40;101435.13;;;26.55;50.39
43161;BME280;40968;52.342;5.528;2022-08-18T13:38:06;101383.88;;;26.27;50.23